Terminal Aerodrome Forecast
Issued by NWS Louisville, KY

Home | Current Version | Previous Version | Text Only | Print | Product List | Glossary On
Versions: 1 2 3 4 5 6 7 8 9 10 11 12 13 14 15 16 17
000
FTUS43 KLMK 260500
TAFLEX
TAF
KLEX 260521Z 2606/2706 00000KT P6SM FEW200
      TEMPO 2609/2613 5SM BR FEW200
     FM261300 23005KT P6SM FEW040 SCT200=

USA.gov is the U.S. government's official web portal to all federal, state and local government web resources and services.